createdAt,value
2023-05-07T00:00:49.784Z,54.15
2023-05-07T00:03:18.024Z,55.53
2023-05-07T00:05:46.437Z,54.95
2023-05-07T00:08:14.870Z,53.13
2023-05-07T00:10:45.252Z,53.83
2023-05-07T00:13:13.432Z,52.33
2023-05-07T00:15:43.181Z,54.45
2023-05-07T00:18:11.374Z,53.03
2023-05-07T00:20:40.863Z,52.55
2023-05-07T00:23:09.180Z,52.42
2023-05-07T00:25:37.490Z,51.25
2023-05-07T00:28:05.751Z,53.30
2023-05-07T00:30:34.191Z,53.20
2023-05-07T00:33:03.895Z,52.85
2023-05-07T00:35:32.355Z,54.78
2023-05-07T00:38:02.302Z,53.45
2023-05-07T00:40:30.505Z,54.78
2023-05-07T00:42:59.447Z,51.83
2023-05-07T00:45:29.642Z,54.40
2023-05-07T00:47:59.562Z,55.20
2023-05-07T00:50:30.298Z,54.40
2023-05-07T00:53:01.937Z,53.42
2023-05-07T00:55:30.798Z,54.15
2023-05-07T00:57:59.097Z,52.13
2023-05-07T01:00:28.106Z,52.53
2023-05-07T01:02:58.984Z,54.92
2023-05-07T01:05:32.895Z,54.55
2023-05-07T01:08:02.800Z,54.72
2023-05-07T01:10:32.253Z,55.28
2023-05-07T01:13:04.162Z,54.85
2023-05-07T01:15:32.579Z,52.58
2023-05-07T01:18:00.866Z,52.50
2023-05-07T01:20:30.843Z,52.97
2023-05-07T01:23:01.445Z,51.72
2023-05-07T01:25:31.519Z,53.03
2023-05-07T01:28:00.925Z,52.90
2023-05-07T01:30:29.848Z,51.05
2023-05-07T01:33:02.887Z,50.75
2023-05-07T01:35:36.413Z,52.63
2023-05-07T01:38:07.293Z,50.03
2023-05-07T01:40:36.507Z,51.90
2023-05-07T01:43:05.443Z,51.35
2023-05-07T01:45:36.489Z,51.15
2023-05-07T01:48:05.197Z,52.17
2023-05-07T01:50:34.690Z,51.83
2023-05-07T01:53:05.086Z,50.58
2023-05-07T01:55:33.344Z,50.78
2023-05-07T01:58:01.682Z,50.20
2023-05-07T02:00:30.166Z,52.08
2023-05-07T02:02:58.885Z,50.97
2023-05-07T02:05:27.330Z,52.33
2023-05-07T02:07:55.565Z,51.58
2023-05-07T02:10:25.510Z,51.92
2023-05-07T02:12:53.692Z,51.63
2023-05-07T02:15:22.009Z,52.67
2023-05-07T02:18:03.976Z,53.47
2023-05-07T02:20:32.373Z,53.00
2023-05-07T02:23:01.628Z,52.60
2023-05-07T02:25:31.448Z,51.78
2023-05-07T02:27:59.922Z,53.35
2023-05-07T02:30:28.599Z,52.95
2023-05-07T02:32:57.071Z,55.28
2023-05-07T02:35:26.935Z,53.83
2023-05-07T02:37:55.633Z,53.17
2023-05-07T02:40:23.955Z,53.90
2023-05-07T02:42:53.577Z,54.20
2023-05-07T02:45:21.719Z,54.95
2023-05-07T02:47:50.015Z,53.55
2023-05-07T02:50:21.248Z,53.28
2023-05-07T02:52:49.519Z,53.63
2023-05-07T02:55:17.676Z,53.72
2023-05-07T02:57:45.916Z,54.13
2023-05-07T03:00:17.988Z,54.03
2023-05-07T03:02:46.402Z,52.65
2023-05-07T03:05:15.455Z,52.70
2023-05-07T03:07:46.426Z,53.17
2023-05-07T03:10:14.455Z,52.83
2023-05-07T03:12:45.970Z,54.22
2023-05-07T03:15:15.695Z,52.58
2023-05-07T03:17:44.300Z,52.20
2023-05-07T03:20:14.406Z,52.58
2023-05-07T03:22:43.108Z,52.28
2023-05-07T03:25:12.373Z,52.70
2023-05-07T03:27:40.713Z,52.25
2023-05-07T03:30:14.702Z,51.08
2023-05-07T03:32:45.051Z,51.55
2023-05-07T03:35:13.433Z,52.60
2023-05-07T03:37:42.145Z,53.28
2023-05-07T03:40:13.862Z,51.40
2023-05-07T03:42:44.665Z,51.08
2023-05-07T03:45:13.103Z,51.08
2023-05-07T03:47:42.929Z,51.20
2023-05-07T03:50:13.987Z,50.50
2023-05-07T03:52:45.577Z,49.83
2023-05-07T03:55:13.846Z,48.75
2023-05-07T03:57:42.076Z,50.25
2023-05-07T04:00:11.308Z,48.97
2023-05-07T04:02:39.891Z,49.95
2023-05-07T04:05:08.579Z,50.90
2023-05-07T04:07:38.275Z,49.53
2023-05-07T04:10:07.528Z,50.50
2023-05-07T04:12:36.177Z,51.13
2023-05-07T04:15:04.889Z,50.20
2023-05-07T04:17:33.127Z,48.55
2023-05-07T04:20:01.553Z,48.28
2023-05-07T04:22:29.719Z,47.95
2023-05-07T04:24:59.707Z,49.20
2023-05-07T04:27:29.050Z,48.53
2023-05-07T04:29:57.810Z,46.97
2023-05-07T04:32:26.586Z,47.67
2023-05-07T04:34:54.936Z,48.58
2023-05-07T04:37:23.050Z,47.88
2023-05-07T04:39:54.147Z,48.65
2023-05-07T04:42:23.732Z,46.45
2023-05-07T04:44:55.640Z,47.63
2023-05-07T04:47:23.879Z,47.40
2023-05-07T04:49:52.067Z,46.72
2023-05-07T04:52:24.799Z,47.35
2023-05-07T04:54:54.258Z,48.25
2023-05-07T04:57:23.789Z,47.25
2023-05-07T04:59:51.990Z,47.35
2023-05-07T05:02:20.916Z,46.78
2023-05-07T05:04:49.390Z,46.67
2023-05-07T05:07:17.525Z,47.42
2023-05-07T05:09:45.999Z,47.67
2023-05-07T05:12:14.204Z,47.22
2023-05-07T05:14:44.044Z,47.05
2023-05-07T05:17:12.287Z,44.95
2023-05-07T05:19:41.072Z,46.13
2023-05-07T05:22:09.344Z,45.72
2023-05-07T05:24:37.701Z,47.05
2023-05-07T05:27:06.366Z,46.67
2023-05-07T05:29:34.839Z,44.67
2023-05-07T05:32:04.636Z,46.33
2023-05-07T05:34:34.306Z,47.03
2023-05-07T05:37:02.744Z,46.00
2023-05-07T05:39:30.866Z,45.33
2023-05-07T05:41:59.087Z,47.80
2023-05-07T05:44:27.442Z,47.28
2023-05-07T05:46:58.820Z,46.63
2023-05-07T05:49:28.434Z,46.88
2023-05-07T05:51:56.841Z,46.75
2023-05-07T05:54:25.032Z,47.10
2023-05-07T05:56:53.595Z,47.42
2023-05-07T05:59:21.959Z,46.60
2023-05-07T06:01:50.323Z,46.63
2023-05-07T06:04:18.765Z,46.00
2023-05-07T06:06:48.337Z,47.03
2023-05-07T06:09:16.496Z,46.35
2023-05-07T06:11:44.811Z,47.13
2023-05-07T06:14:13.163Z,47.15
2023-05-07T06:16:41.618Z,47.40
2023-05-07T06:19:09.881Z,47.40
2023-05-07T06:21:38.595Z,46.97
2023-05-07T06:24:08.959Z,47.03
2023-05-07T06:26:37.163Z,47.25
2023-05-07T06:29:05.769Z,47.70
2023-05-07T06:31:34.203Z,47.08
2023-05-07T06:34:03.407Z,45.33
2023-05-07T06:36:31.876Z,47.20
2023-05-07T06:39:02.883Z,47.05
2023-05-07T06:41:32.372Z,47.58
2023-05-07T06:44:00.751Z,46.42
2023-05-07T06:46:29.661Z,46.33
2023-05-07T06:48:58.632Z,46.28
2023-05-07T06:51:26.885Z,45.42
2023-05-07T06:53:55.719Z,46.65
2023-05-07T06:56:24.087Z,46.40
2023-05-07T06:58:53.987Z,48.30
2023-05-07T07:01:22.314Z,48.53
2023-05-07T07:03:52.314Z,46.38
2023-05-07T07:06:21.178Z,48.53
2023-05-07T07:08:50.503Z,47.33
2023-05-07T07:11:18.854Z,47.03
2023-05-07T07:13:47.215Z,49.05
2023-05-07T07:16:19.878Z,47.33
2023-05-07T07:18:48.253Z,46.40
2023-05-07T07:21:16.444Z,49.15
2023-05-07T07:23:44.707Z,47.58
2023-05-07T07:26:12.884Z,46.58
2023-05-07T07:28:47.764Z,47.33
2023-05-07T07:31:16.237Z,46.13
2023-05-07T07:33:45.928Z,46.22
2023-05-07T07:36:14.231Z,45.58
2023-05-07T07:38:44.211Z,45.85
2023-05-07T07:41:12.607Z,46.03
2023-05-07T07:43:41.099Z,45.85
2023-05-07T07:46:11.201Z,45.92
2023-05-07T07:48:39.486Z,46.03
2023-05-07T07:51:09.578Z,44.38
2023-05-07T07:53:37.829Z,45.80
2023-05-07T07:56:06.588Z,47.10
2023-05-07T07:58:38.926Z,45.33
2023-05-07T08:01:07.227Z,47.40
2023-05-07T08:03:35.549Z,46.05
2023-05-07T08:06:03.816Z,47.00
2023-05-07T08:08:33.323Z,47.67
2023-05-07T08:11:01.806Z,46.83
2023-05-07T08:13:34.837Z,48.15
2023-05-07T08:16:03.545Z,47.33
2023-05-07T08:18:31.875Z,47.10
2023-05-07T08:20:59.945Z,47.53
2023-05-07T08:23:28.215Z,48.65
2023-05-07T08:25:58.554Z,48.30
2023-05-07T08:28:26.938Z,48.45
2023-05-07T08:30:55.239Z,49.70
2023-05-07T08:33:23.822Z,49.65
2023-05-07T08:35:52.009Z,49.95
2023-05-07T08:38:22.016Z,51.03
2023-05-07T08:40:57.936Z,50.83
2023-05-07T08:43:29.700Z,52.40
2023-05-07T08:46:01.792Z,51.15
2023-05-07T08:48:31.596Z,53.03
2023-05-07T08:51:00.419Z,53.28
2023-05-07T08:53:29.071Z,51.45
2023-05-07T08:56:01.843Z,52.42
2023-05-07T08:58:31.707Z,52.00
2023-05-07T09:01:01.204Z,53.28
2023-05-07T09:03:30.608Z,52.63
2023-05-07T09:05:58.980Z,55.45
2023-05-07T09:08:31.123Z,57.38
2023-05-07T09:10:59.589Z,56.25
2023-05-07T09:13:29.427Z,56.28
2023-05-07T09:16:01.350Z,56.45
2023-05-07T09:18:29.618Z,59.17
2023-05-07T09:20:57.995Z,57.67
2023-05-07T09:23:26.489Z,59.40
2023-05-07T09:26:03.255Z,59.83
2023-05-07T09:28:34.119Z,61.40
2023-05-07T09:31:03.917Z,62.65
2023-05-07T09:33:31.938Z,62.65
2023-05-07T09:36:00.088Z,62.35
2023-05-07T09:38:29.797Z,61.72
2023-05-07T09:41:11.069Z,63.88
2023-05-07T09:43:41.273Z,66.03
2023-05-07T09:46:15.172Z,66.28
2023-05-07T09:48:45.295Z,69.57
2023-05-07T09:51:24.627Z,68.20
2023-05-07T09:53:54.875Z,69.18
2023-05-07T09:56:24.845Z,67.18
2023-05-07T09:58:56.685Z,67.50
2023-05-07T10:01:30.211Z,68.43
2023-05-07T10:03:59.802Z,69.25
2023-05-07T10:06:28.664Z,72.10
2023-05-07T10:09:00.214Z,73.63
2023-05-07T10:11:28.845Z,75.15
2023-05-07T10:13:58.018Z,74.78
2023-05-07T10:16:37.276Z,76.18
2023-05-07T10:19:06.144Z,76.47
2023-05-07T10:21:38.610Z,75.15
2023-05-07T10:24:15.081Z,76.95
2023-05-07T10:26:46.839Z,74.80
2023-05-07T10:29:20.846Z,75.90
2023-05-07T10:32:26.305Z,68.32
2023-05-07T10:34:59.607Z,67.35
2023-05-07T10:37:28.147Z,62.85
2023-05-07T10:39:58.724Z,62.80
2023-05-07T10:42:30.075Z,55.85
2023-05-07T10:44:59.004Z,54.53
2023-05-07T10:47:30.110Z,56.33
2023-05-07T10:50:26.186Z,55.67
2023-05-07T10:53:29.786Z,42.60
2023-05-07T10:56:29.932Z,42.88
2023-05-07T10:59:35.063Z,38.13
2023-05-07T11:02:09.275Z,34.50
2023-05-07T11:04:40.268Z,22.55
2023-05-07T11:07:31.011Z,11.52
2023-05-07T11:10:02.498Z,14.38
2023-05-07T11:12:50.901Z,10.73
2023-05-07T11:15:38.594Z,10.60
2023-05-07T11:18:09.860Z,10.60
2023-05-07T11:20:52.333Z,9.10
2023-05-07T11:24:09.301Z,7.93
2023-05-07T11:26:46.607Z,11.20
2023-05-07T11:29:21.591Z,9.18
2023-05-07T11:31:57.316Z,9.98
2023-05-07T11:34:27.721Z,10.18
2023-05-07T11:37:04.986Z,13.80
2023-05-07T11:39:37.464Z,14.35
2023-05-07T11:42:06.284Z,8.73
2023-05-07T11:44:47.746Z,12.43
2023-05-07T11:47:25.222Z,10.10
2023-05-07T11:49:55.571Z,11.45
2023-05-07T11:52:28.918Z,11.77
2023-05-07T11:55:12.179Z,10.82
2023-05-07T11:57:44.668Z,9.93
2023-05-07T12:00:14.055Z,10.93
2023-05-07T12:02:43.178Z,13.25
2023-05-07T12:05:12.496Z,11.63
2023-05-07T12:07:44.295Z,10.70
2023-05-07T12:10:21.781Z,12.23
2023-05-07T12:12:54.160Z,10.90
2023-05-07T12:15:25.391Z,10.20
2023-05-07T12:17:54.018Z,12.38
2023-05-07T12:20:24.712Z,10.48
2023-05-07T12:22:57.135Z,11.02
2023-05-07T12:25:28.747Z,18.73
2023-05-07T12:27:59.911Z,19.38
2023-05-07T12:30:28.154Z,19.75
2023-05-07T12:32:56.867Z,20.92
2023-05-07T12:35:37.221Z,20.38
2023-05-07T12:38:10.527Z,21.48
2023-05-07T12:40:39.999Z,24.63
2023-05-07T12:43:08.507Z,21.83
2023-05-07T12:45:40.954Z,21.20
2023-05-07T12:48:11.584Z,22.20
2023-05-07T12:50:39.986Z,26.13
2023-05-07T12:53:12.180Z,33.65
2023-05-07T12:55:45.149Z,50.97
2023-05-07T12:58:18.978Z,55.80
2023-05-07T13:00:49.284Z,61.03
2023-05-07T13:03:25.348Z,63.55
2023-05-07T13:05:58.742Z,65.82
2023-05-07T13:08:31.070Z,72.90
2023-05-07T13:11:01.103Z,73.65
2023-05-07T13:13:32.412Z,72.38
2023-05-07T13:16:04.993Z,74.53
2023-05-07T13:18:36.933Z,78.90
2023-05-07T13:21:05.583Z,74.95
2023-05-07T13:23:39.534Z,75.97
2023-05-07T13:26:22.489Z,78.18
2023-05-07T13:28:57.095Z,76.00
2023-05-07T13:31:25.388Z,77.90
2023-05-07T13:33:57.305Z,74.22
2023-05-07T13:36:25.527Z,78.43
2023-05-07T13:38:59.446Z,76.25
2023-05-07T13:41:28.089Z,76.15
2023-05-07T13:43:56.869Z,78.53
2023-05-07T13:46:27.464Z,76.28
2023-05-07T13:48:55.834Z,78.10
2023-05-07T13:51:27.114Z,76.80
2023-05-07T13:54:07.078Z,74.97
2023-05-07T13:56:35.356Z,77.40
2023-05-07T13:59:33.864Z,79.07
2023-05-07T14:02:06.320Z,72.57
2023-05-07T14:04:34.494Z,73.43
2023-05-07T14:07:02.733Z,71.10
2023-05-07T14:09:32.378Z,68.90
2023-05-07T14:12:01.237Z,69.45
2023-05-07T14:14:29.522Z,69.97
2023-05-07T14:17:03.245Z,69.53
2023-05-07T14:19:42.518Z,67.07
2023-05-07T14:22:10.982Z,66.43
2023-05-07T14:24:40.893Z,65.85
2023-05-07T14:27:09.189Z,64.05
2023-05-07T14:29:37.302Z,63.50
2023-05-07T14:32:05.711Z,61.53
2023-05-07T14:34:35.137Z,62.83
2023-05-07T14:37:03.655Z,63.42
2023-05-07T14:39:32.058Z,66.63
2023-05-07T14:42:01.537Z,65.57
2023-05-07T14:44:32.456Z,66.28
2023-05-07T14:47:02.242Z,68.22
2023-05-07T14:49:33.706Z,67.80
2023-05-07T14:52:02.094Z,67.43
2023-05-07T14:54:30.495Z,67.35
2023-05-07T14:56:58.674Z,74.07
2023-05-07T14:59:28.282Z,70.22
2023-05-07T15:01:56.997Z,68.68
2023-05-07T15:04:26.245Z,67.13
2023-05-07T15:07:01.015Z,66.55
2023-05-07T15:09:29.235Z,67.85
2023-05-07T15:11:58.005Z,69.30
2023-05-07T15:14:27.715Z,68.88
2023-05-07T15:16:58.828Z,67.05
2023-05-07T15:19:30.128Z,66.60
2023-05-07T15:22:01.640Z,68.43
2023-05-07T15:24:29.848Z,69.03
2023-05-07T15:27:00.395Z,67.07
2023-05-07T15:29:29.895Z,71.45
2023-05-07T15:31:58.679Z,68.35
2023-05-07T15:34:28.875Z,68.30
2023-05-07T15:36:58.604Z,67.53
2023-05-07T15:39:27.457Z,64.63
2023-05-07T15:42:02.621Z,65.45
2023-05-07T15:44:35.516Z,66.70
2023-05-07T15:47:06.240Z,65.72
2023-05-07T15:49:35.128Z,66.15
2023-05-07T15:52:06.290Z,66.10
2023-05-07T15:54:41.008Z,66.40
2023-05-07T15:57:11.797Z,67.05
2023-05-07T15:59:42.831Z,68.00
2023-05-07T16:02:11.179Z,64.55
2023-05-07T16:04:42.564Z,67.18
2023-05-07T16:07:12.556Z,67.35
2023-05-07T16:09:41.423Z,63.45
2023-05-07T16:12:09.950Z,65.25
2023-05-07T16:14:38.120Z,62.55
2023-05-07T16:17:07.772Z,61.00
2023-05-07T16:19:36.119Z,62.25
2023-05-07T16:22:04.359Z,66.80
2023-05-07T16:24:32.768Z,61.85
2023-05-07T16:27:01.355Z,61.80
2023-05-07T16:29:29.426Z,64.43
2023-05-07T16:31:59.406Z,68.53
2023-05-07T16:34:30.947Z,60.42
2023-05-07T16:37:00.707Z,60.00
2023-05-07T16:39:28.951Z,68.38
2023-05-07T16:42:00.638Z,61.53
2023-05-07T16:44:29.051Z,61.55
2023-05-07T16:46:57.820Z,63.33
2023-05-07T16:49:25.884Z,61.70
2023-05-07T16:51:56.910Z,62.50
2023-05-07T16:54:25.092Z,60.40
2023-05-07T16:56:54.032Z,56.17
2023-05-07T16:59:23.267Z,57.00
2023-05-07T17:01:57.163Z,54.15
2023-05-07T17:04:27.268Z,52.33
2023-05-07T17:06:59.055Z,53.08
2023-05-07T17:09:30.870Z,53.20
2023-05-07T17:11:59.137Z,52.83
2023-05-07T17:14:27.767Z,51.70
2023-05-07T17:16:57.478Z,49.42
2023-05-07T17:19:25.765Z,50.58
2023-05-07T17:21:57.768Z,49.05
2023-05-07T17:24:28.590Z,49.55
2023-05-07T17:27:05.750Z,49.58
2023-05-07T17:29:35.907Z,49.13
2023-05-07T17:32:11.921Z,51.28
2023-05-07T17:34:42.000Z,49.28
2023-05-07T17:37:11.695Z,48.20
2023-05-07T17:39:40.185Z,49.65
2023-05-07T17:42:08.515Z,51.47
2023-05-07T17:44:38.854Z,49.00
2023-05-07T17:47:14.379Z,49.22
2023-05-07T17:49:43.345Z,49.67
2023-05-07T17:52:13.346Z,48.90
2023-05-07T17:54:41.820Z,49.75
2023-05-07T17:57:14.279Z,50.67
2023-05-07T17:59:42.403Z,48.50
2023-05-07T18:02:13.622Z,49.95
2023-05-07T18:04:41.908Z,49.92
2023-05-07T18:07:11.809Z,49.35
2023-05-07T18:09:46.234Z,50.72
2023-05-07T18:12:17.369Z,51.47
2023-05-07T18:14:49.320Z,51.53
2023-05-07T18:17:19.790Z,53.40
2023-05-07T18:20:02.785Z,51.88
2023-05-07T18:22:46.452Z,52.45
2023-05-07T18:25:34.101Z,53.20
2023-05-07T18:28:10.266Z,51.92
2023-05-07T18:30:40.822Z,52.13
2023-05-07T18:33:09.292Z,52.95
2023-05-07T18:35:38.305Z,51.75
2023-05-07T18:38:09.024Z,49.97
2023-05-07T18:40:49.362Z,49.92
2023-05-07T18:44:08.309Z,50.70
2023-05-07T18:46:37.043Z,51.35
2023-05-07T18:49:07.905Z,51.92
2023-05-07T18:51:36.327Z,51.45
2023-05-07T18:54:04.774Z,52.45
2023-05-07T18:56:43.359Z,53.38
2023-05-07T18:59:12.452Z,54.78
2023-05-07T19:01:40.788Z,53.72
2023-05-07T19:04:09.189Z,57.72
2023-05-07T19:06:38.938Z,53.75
2023-05-07T19:09:09.827Z,54.88
2023-05-07T19:11:42.163Z,53.95
2023-05-07T19:14:13.535Z,54.70
2023-05-07T19:16:42.228Z,55.42
2023-05-07T19:19:11.199Z,56.33
2023-05-07T19:21:39.517Z,54.22
2023-05-07T19:24:11.883Z,55.25
2023-05-07T19:26:41.678Z,56.42
2023-05-07T19:29:17.181Z,52.72
2023-05-07T19:31:46.664Z,56.47
2023-05-07T19:34:18.393Z,58.28
2023-05-07T19:36:46.804Z,59.03
2023-05-07T19:39:15.038Z,61.03
2023-05-07T19:41:47.222Z,58.85
2023-05-07T19:44:16.427Z,58.40
2023-05-07T19:46:47.849Z,63.92
2023-05-07T19:49:18.486Z,61.33
2023-05-07T19:51:46.862Z,59.28
2023-05-07T19:54:18.342Z,58.75
2023-05-07T19:56:49.263Z,56.53
2023-05-07T19:59:19.707Z,56.53
2023-05-07T20:01:51.723Z,58.08
2023-05-07T20:04:20.207Z,55.75
2023-05-07T20:06:49.596Z,58.85
2023-05-07T20:09:17.895Z,59.42
2023-05-07T20:11:47.774Z,56.65
2023-05-07T20:14:16.384Z,56.38
2023-05-07T20:16:47.844Z,55.55
2023-05-07T20:19:16.317Z,56.15
2023-05-07T20:21:44.809Z,60.47
2023-05-07T20:24:13.056Z,64.63
2023-05-07T20:26:41.306Z,64.80
2023-05-07T20:29:11.289Z,66.72
2023-05-07T20:31:39.795Z,66.22
2023-05-07T20:34:08.531Z,68.43
2023-05-07T20:36:39.834Z,67.50
2023-05-07T20:39:08.434Z,68.20
2023-05-07T20:41:37.112Z,65.40
2023-05-07T20:44:05.541Z,63.58
2023-05-07T20:46:46.214Z,63.55
2023-05-07T20:49:16.734Z,62.22
2023-05-07T20:51:45.036Z,60.15
2023-05-07T20:54:14.708Z,62.00
2023-05-07T20:56:44.164Z,63.78
2023-05-07T20:59:12.600Z,64.78
2023-05-07T21:01:43.980Z,64.80
2023-05-07T21:04:14.137Z,66.05
2023-05-07T21:06:43.747Z,67.53
2023-05-07T21:09:14.782Z,66.90
2023-05-07T21:11:43.323Z,68.35
2023-05-07T21:14:11.753Z,70.78
2023-05-07T21:16:43.091Z,76.80
2023-05-07T21:19:14.848Z,76.43
2023-05-07T21:21:43.528Z,73.88
2023-05-07T21:24:12.103Z,80.13
2023-05-07T21:26:40.318Z,72.68
2023-05-07T21:29:10.770Z,70.38
2023-05-07T21:31:41.687Z,71.43
2023-05-07T21:34:11.588Z,70.22
2023-05-07T21:36:39.725Z,72.30
2023-05-07T21:39:08.896Z,72.03
2023-05-07T21:41:37.750Z,74.28
2023-05-07T21:44:06.430Z,69.13
2023-05-07T21:46:42.187Z,71.82
2023-05-07T21:49:12.182Z,72.38
2023-05-07T21:51:45.052Z,72.63
2023-05-07T21:54:16.196Z,73.45
2023-05-07T21:56:48.846Z,72.00
2023-05-07T21:59:18.190Z,76.07
2023-05-07T22:01:46.521Z,72.18
2023-05-07T22:04:23.117Z,73.20
2023-05-07T22:06:51.607Z,72.15
2023-05-07T22:09:19.790Z,71.55
2023-05-07T22:11:48.106Z,71.93
2023-05-07T22:14:18.861Z,69.95
2023-05-07T22:16:47.427Z,69.00
2023-05-07T22:19:17.314Z,73.47
2023-05-07T22:21:45.598Z,71.32
2023-05-07T22:24:14.140Z,69.40
2023-05-07T22:26:42.308Z,71.45
2023-05-07T22:29:10.594Z,80.95
2023-05-07T22:31:38.931Z,68.82
2023-05-07T22:34:22.466Z,69.30
2023-05-07T22:36:51.196Z,67.05
2023-05-07T22:39:19.452Z,66.80
2023-05-07T22:41:49.701Z,64.07
2023-05-07T22:44:18.212Z,65.60
2023-05-07T22:46:46.426Z,66.05
2023-05-07T22:49:15.850Z,65.80
2023-05-07T22:51:45.573Z,70.57
2023-05-07T22:54:13.781Z,68.78
2023-05-07T22:56:42.315Z,69.10
2023-05-07T22:59:10.981Z,71.10
2023-05-07T23:01:40.642Z,69.22
2023-05-07T23:04:12.816Z,67.78
2023-05-07T23:06:41.690Z,64.72
2023-05-07T23:09:11.825Z,71.70
2023-05-07T23:11:40.373Z,77.10
2023-05-07T23:14:08.917Z,75.80
2023-05-07T23:16:37.315Z,70.68
2023-05-07T23:19:05.678Z,81.40
2023-05-07T23:21:33.849Z,73.95
2023-05-07T23:24:02.237Z,69.55
2023-05-07T23:26:32.185Z,83.80
2023-05-07T23:29:00.526Z,70.35
2023-05-07T23:31:28.906Z,87.88
2023-05-07T23:33:57.133Z,71.07
2023-05-07T23:36:25.384Z,71.07
2023-05-07T23:38:56.893Z,73.00
2023-05-07T23:41:26.715Z,68.10
2023-05-07T23:43:57.018Z,70.00
2023-05-07T23:46:27.846Z,84.35
2023-05-07T23:48:56.246Z,89.05
2023-05-07T23:51:26.536Z,83.05
2023-05-07T23:53:54.842Z,73.40
2023-05-07T23:56:23.882Z,79.90
2023-05-07T23:58:55.605Z,72.95
